createdAt,value
2022-11-09T00:00:01.706Z,66.28
2022-11-09T00:02:46.434Z,66.50
2022-11-09T00:05:15.995Z,66.44
2022-11-09T00:07:47.183Z,66.61
2022-11-09T00:10:15.229Z,66.55
2022-11-09T00:12:45.896Z,66.32
2022-11-09T00:15:15.787Z,66.73
2022-11-09T00:17:52.412Z,66.01
2022-11-09T00:20:21.695Z,66.14
2022-11-09T00:22:49.882Z,66.39
2022-11-09T00:25:18.039Z,66.17
2022-11-09T00:27:49.196Z,66.05
2022-11-09T00:30:17.140Z,66.36
2022-11-09T00:32:51.028Z,66.40
2022-11-09T00:35:21.015Z,66.12
2022-11-09T00:38:01.439Z,66.34
2022-11-09T00:40:30.541Z,66.26
2022-11-09T00:43:02.833Z,66.43
2022-11-09T00:45:30.635Z,66.04
2022-11-09T00:47:59.143Z,66.09
2022-11-09T00:50:28.817Z,66.28
2022-11-09T00:52:56.891Z,66.20
2022-11-09T00:55:25.017Z,66.17
2022-11-09T00:57:53.713Z,66.10
2022-11-09T01:00:24.875Z,65.69
2022-11-09T01:02:57.723Z,66.24
2022-11-09T01:05:30.455Z,66.13
2022-11-09T01:07:59.629Z,65.86
2022-11-09T01:10:30.090Z,66.50
2022-11-09T01:12:59.706Z,66.46
2022-11-09T01:15:28.186Z,66.19
2022-11-09T01:17:57.102Z,66.15
2022-11-09T01:20:25.950Z,66.23
2022-11-09T01:22:55.613Z,66.46
2022-11-09T01:25:23.864Z,65.98
2022-11-09T01:27:55.140Z,66.16
2022-11-09T01:30:22.963Z,66.55
2022-11-09T01:32:53.232Z,66.00
2022-11-09T01:35:21.044Z,66.11
2022-11-09T01:37:52.989Z,66.05
2022-11-09T01:40:22.120Z,65.83
2022-11-09T01:42:50.319Z,66.12
2022-11-09T01:45:30.151Z,65.81
2022-11-09T01:48:05.961Z,65.93
2022-11-09T01:50:42.538Z,65.89
2022-11-09T01:53:18.996Z,66.05
2022-11-09T01:56:14.929Z,65.82
2022-11-09T01:58:50.304Z,65.99
2022-11-09T02:01:22.943Z,66.33
2022-11-09T02:04:01.296Z,66.05
2022-11-09T02:06:31.550Z,66.01
2022-11-09T02:09:09.202Z,66.27
2022-11-09T02:11:39.104Z,66.28
2022-11-09T02:14:08.994Z,66.19
2022-11-09T02:16:37.793Z,66.59
2022-11-09T02:19:08.233Z,66.16
2022-11-09T02:21:37.649Z,66.05
2022-11-09T02:24:30.807Z,65.77
2022-11-09T02:27:01.965Z,65.84
2022-11-09T02:29:40.543Z,66.16
2022-11-09T02:32:20.085Z,66.33
2022-11-09T02:34:48.768Z,66.27
2022-11-09T02:37:28.310Z,66.12
2022-11-09T02:39:59.968Z,65.98
2022-11-09T02:42:27.913Z,66.23
2022-11-09T02:44:59.522Z,66.44
2022-11-09T02:47:32.215Z,66.82
2022-11-09T02:50:03.704Z,66.89
2022-11-09T02:52:33.014Z,66.78
2022-11-09T02:55:03.872Z,67.07
2022-11-09T02:57:31.765Z,66.61
2022-11-09T03:00:00.701Z,67.18
2022-11-09T03:02:28.887Z,66.80
2022-11-09T03:04:56.955Z,67.39
2022-11-09T03:07:26.691Z,67.34
2022-11-09T03:10:03.731Z,67.58
2022-11-09T03:12:32.858Z,67.42
2022-11-09T03:15:08.923Z,67.55
2022-11-09T03:17:40.401Z,67.71
2022-11-09T03:20:11.859Z,67.68
2022-11-09T03:22:40.701Z,67.15
2022-11-09T03:25:11.292Z,67.32
2022-11-09T03:27:39.789Z,67.41
2022-11-09T03:30:10.404Z,67.65
2022-11-09T03:32:38.749Z,67.65
2022-11-09T03:35:13.721Z,67.36
2022-11-09T03:37:41.795Z,67.83
2022-11-09T03:40:12.766Z,67.72
2022-11-09T03:42:45.741Z,67.54
2022-11-09T03:45:13.563Z,67.55
2022-11-09T03:47:49.153Z,67.59
2022-11-09T03:50:20.907Z,67.85
2022-11-09T03:52:52.069Z,68.00
2022-11-09T03:55:25.605Z,68.12
2022-11-09T03:57:53.529Z,68.06
2022-11-09T04:00:23.204Z,67.72
2022-11-09T04:02:51.492Z,67.90
2022-11-09T04:05:19.778Z,67.85
2022-11-09T04:07:48.784Z,67.99
2022-11-09T04:10:22.927Z,67.97
2022-11-09T04:12:52.281Z,67.25
2022-11-09T04:15:20.171Z,67.73
2022-11-09T04:18:03.855Z,67.67
2022-11-09T04:20:32.991Z,67.86
2022-11-09T04:23:02.695Z,67.44
2022-11-09T04:25:35.822Z,67.63
2022-11-09T04:28:06.884Z,67.59
2022-11-09T04:30:36.699Z,67.51
2022-11-09T04:33:05.103Z,67.50
2022-11-09T04:35:36.210Z,67.63
2022-11-09T04:38:06.598Z,67.48
2022-11-09T04:40:40.800Z,67.57
2022-11-09T04:43:15.917Z,67.73
2022-11-09T04:45:44.212Z,67.45
2022-11-09T04:48:13.500Z,67.79
2022-11-09T04:50:50.090Z,67.45
2022-11-09T04:53:18.001Z,67.82
2022-11-09T04:55:45.923Z,67.51
2022-11-09T04:58:15.159Z,67.22
2022-11-09T05:00:43.260Z,67.78
2022-11-09T05:03:11.292Z,68.04
2022-11-09T05:05:44.052Z,67.67
2022-11-09T05:08:22.232Z,68.17
2022-11-09T05:10:50.015Z,67.85
2022-11-09T05:13:21.924Z,67.58
2022-11-09T05:15:49.877Z,68.09
2022-11-09T05:18:17.681Z,68.05
2022-11-09T05:20:47.679Z,67.85
2022-11-09T05:23:41.312Z,67.93
2022-11-09T05:26:11.845Z,68.08
2022-11-09T05:28:41.175Z,68.19
2022-11-09T05:31:09.136Z,68.13
2022-11-09T05:33:46.572Z,68.46
2022-11-09T05:36:14.514Z,68.28
2022-11-09T05:38:42.337Z,68.51
2022-11-09T05:41:10.083Z,68.41
2022-11-09T05:43:38.022Z,68.27
2022-11-09T05:46:07.573Z,68.46
2022-11-09T05:48:35.401Z,68.67
2022-11-09T05:51:03.629Z,68.71
2022-11-09T05:53:32.119Z,68.71
2022-11-09T05:56:05.691Z,68.98
2022-11-09T05:58:36.343Z,69.09
2022-11-09T06:01:07.086Z,68.96
2022-11-09T06:03:35.058Z,69.11
2022-11-09T06:06:08.376Z,68.84
2022-11-09T06:08:37.372Z,68.88
2022-11-09T06:11:07.386Z,68.86
2022-11-09T06:13:35.630Z,68.92
2022-11-09T06:16:08.814Z,69.08
2022-11-09T06:18:37.762Z,68.99
2022-11-09T06:21:07.436Z,68.72
2022-11-09T06:23:35.250Z,68.90
2022-11-09T06:26:11.385Z,69.02
2022-11-09T06:28:40.145Z,68.98
2022-11-09T06:31:16.879Z,68.85
2022-11-09T06:33:44.754Z,68.77
2022-11-09T06:36:13.119Z,68.94
2022-11-09T06:38:44.069Z,69.14
2022-11-09T06:41:11.943Z,69.19
2022-11-09T06:43:42.345Z,69.06
2022-11-09T06:46:17.216Z,69.26
2022-11-09T06:48:51.842Z,69.18
2022-11-09T06:51:25.940Z,69.40
2022-11-09T06:53:54.191Z,69.43
2022-11-09T06:56:22.257Z,69.21
2022-11-09T06:58:51.550Z,69.36
2022-11-09T07:01:34.715Z,69.61
2022-11-09T07:04:15.008Z,69.51
2022-11-09T07:06:43.916Z,69.63
2022-11-09T07:09:13.239Z,69.63
2022-11-09T07:11:41.386Z,69.82
2022-11-09T07:14:12.044Z,69.61
2022-11-09T07:16:41.141Z,69.74
2022-11-09T07:19:08.928Z,69.70
2022-11-09T07:21:36.920Z,69.71
2022-11-09T07:24:08.110Z,69.47
2022-11-09T07:26:35.870Z,69.56
2022-11-09T07:29:06.788Z,69.40
2022-11-09T07:32:00.714Z,69.61
2022-11-09T07:34:28.486Z,69.46
2022-11-09T07:36:56.709Z,69.11
2022-11-09T07:39:24.818Z,69.27
2022-11-09T07:41:52.983Z,69.31
2022-11-09T07:44:20.840Z,69.35
2022-11-09T07:46:52.125Z,69.42
2022-11-09T07:49:25.750Z,69.44
2022-11-09T07:51:53.701Z,69.77
2022-11-09T07:54:21.624Z,69.73
2022-11-09T07:56:49.450Z,69.84
2022-11-09T07:59:42.765Z,69.96
2022-11-09T08:02:11.177Z,69.98
2022-11-09T08:04:40.465Z,69.90
2022-11-09T08:07:10.017Z,69.87
2022-11-09T08:09:40.776Z,69.73
2022-11-09T08:12:10.882Z,69.77
2022-11-09T08:14:41.740Z,69.69
2022-11-09T08:17:10.161Z,69.82
2022-11-09T08:19:43.689Z,70.08
2022-11-09T08:22:11.746Z,69.91
2022-11-09T08:24:39.725Z,69.87
2022-11-09T08:27:07.950Z,69.89
2022-11-09T08:29:36.288Z,70.08
2022-11-09T08:32:04.147Z,70.10
2022-11-09T08:34:31.930Z,70.16
2022-11-09T08:37:02.281Z,70.07
2022-11-09T08:39:30.274Z,69.84
2022-11-09T08:41:58.842Z,69.85
2022-11-09T08:44:26.733Z,69.27
2022-11-09T08:46:54.989Z,69.02
2022-11-09T08:49:25.955Z,69.32
2022-11-09T08:51:56.648Z,69.02
2022-11-09T08:54:26.757Z,69.60
2022-11-09T08:57:00.808Z,69.64
2022-11-09T08:59:28.621Z,69.81
2022-11-09T09:01:59.934Z,70.11
2022-11-09T09:04:27.800Z,70.06
2022-11-09T09:07:04.503Z,69.74
2022-11-09T09:09:34.640Z,69.75
2022-11-09T09:12:02.793Z,70.03
2022-11-09T09:14:32.214Z,70.28
2022-11-09T09:17:00.496Z,70.22
2022-11-09T09:19:29.782Z,70.14
2022-11-09T09:22:07.098Z,70.40
2022-11-09T09:24:36.549Z,69.93
2022-11-09T09:27:04.888Z,70.16
2022-11-09T09:29:32.838Z,70.23
2022-11-09T09:32:00.738Z,70.66
2022-11-09T09:34:28.745Z,70.37
2022-11-09T09:36:59.671Z,70.60
2022-11-09T09:39:27.886Z,70.30
2022-11-09T09:42:07.612Z,70.15
2022-11-09T09:44:41.760Z,70.12
2022-11-09T09:47:24.365Z,70.40
2022-11-09T09:49:56.577Z,70.25
2022-11-09T09:52:38.900Z,70.35
2022-11-09T09:55:13.794Z,70.40
2022-11-09T09:57:51.236Z,70.58
2022-11-09T10:00:23.619Z,70.34
2022-11-09T10:02:52.074Z,70.62
2022-11-09T10:05:21.573Z,70.15
2022-11-09T10:07:56.885Z,70.44
2022-11-09T10:10:44.367Z,70.51
2022-11-09T10:13:48.445Z,70.79
2022-11-09T10:16:32.261Z,70.51
2022-11-09T10:19:25.778Z,70.96
2022-11-09T10:21:59.504Z,70.41
2022-11-09T10:24:58.637Z,70.50
2022-11-09T10:27:35.142Z,70.53
2022-11-09T10:30:13.008Z,70.55
2022-11-09T10:32:42.834Z,70.97
2022-11-09T10:35:19.602Z,70.61
2022-11-09T10:37:50.333Z,70.13
2022-11-09T10:40:24.050Z,70.33
2022-11-09T10:43:12.993Z,70.26
2022-11-09T10:46:05.773Z,70.02
2022-11-09T10:48:54.051Z,69.42
2022-11-09T10:51:46.494Z,69.64
2022-11-09T10:55:13.830Z,69.30
2022-11-09T10:58:03.274Z,69.84
2022-11-09T11:01:00.215Z,69.65
2022-11-09T11:03:52.779Z,69.69
2022-11-09T11:06:39.570Z,69.70
2022-11-09T11:09:25.864Z,69.93
2022-11-09T11:12:16.295Z,69.55
2022-11-09T11:15:02.931Z,69.89
2022-11-09T11:17:49.372Z,69.55
2022-11-09T11:20:39.081Z,69.07
2022-11-09T11:23:27.196Z,69.42
2022-11-09T11:26:26.160Z,69.11
2022-11-09T11:29:28.508Z,69.06
2022-11-09T11:32:17.524Z,68.92
2022-11-09T11:35:06.539Z,68.52
2022-11-09T11:38:05.737Z,68.40
2022-11-09T11:41:01.868Z,68.26
2022-11-09T11:43:57.407Z,68.05
2022-11-09T11:46:48.317Z,68.10
2022-11-09T11:49:54.370Z,68.46
2022-11-09T11:52:53.215Z,68.06
2022-11-09T11:56:09.062Z,68.39
2022-11-09T11:59:12.427Z,68.35
2022-11-09T12:02:30.088Z,68.03
2022-11-09T12:05:55.500Z,67.76
2022-11-09T12:09:06.247Z,67.91
2022-11-09T12:12:15.976Z,67.38
2022-11-09T12:15:31.782Z,67.73
2022-11-09T12:21:54.069Z,65.98
2022-11-09T12:24:48.476Z,66.99
2022-11-09T12:27:55.266Z,66.73
2022-11-09T12:30:56.151Z,66.76
2022-11-09T12:33:58.501Z,66.74
2022-11-09T12:36:53.037Z,67.02
2022-11-09T12:39:44.676Z,65.70
2022-11-09T12:42:44.544Z,67.40
2022-11-09T12:45:36.059Z,67.13
2022-11-09T12:48:25.474Z,67.41
2022-11-09T12:51:16.653Z,67.14
2022-11-09T12:54:11.216Z,66.89
2022-11-09T12:57:04.526Z,66.75
2022-11-09T12:59:54.531Z,67.27
2022-11-09T13:02:54.023Z,67.34
2022-11-09T13:05:42.910Z,67.38
2022-11-09T13:08:31.891Z,67.42
2022-11-09T13:11:22.921Z,67.36
2022-11-09T13:14:37.123Z,67.33
2022-11-09T13:17:59.712Z,67.42
2022-11-09T13:20:55.840Z,67.13
2022-11-09T13:24:04.056Z,67.00
2022-11-09T13:26:59.785Z,66.44
2022-11-09T13:29:55.334Z,66.48
2022-11-09T13:33:24.650Z,65.48
2022-11-09T13:36:26.551Z,66.34
2022-11-09T13:39:34.169Z,65.94
2022-11-09T13:42:32.197Z,66.98
2022-11-09T13:45:27.909Z,67.03
2022-11-09T13:48:39.012Z,66.50
2022-11-09T13:51:40.070Z,67.19
2022-11-09T13:54:32.255Z,66.55
2022-11-09T13:57:18.852Z,66.46
2022-11-09T14:00:19.639Z,65.95
2022-11-09T14:03:20.339Z,65.88
2022-11-09T14:06:14.901Z,66.24
2022-11-09T14:09:05.597Z,66.13
2022-11-09T14:12:13.106Z,66.18
2022-11-09T14:15:21.009Z,66.31
2022-11-09T14:18:19.417Z,66.38
2022-11-09T14:21:25.848Z,66.70
2022-11-09T14:24:19.741Z,67.04
2022-11-09T14:27:15.376Z,66.90
2022-11-09T14:30:02.819Z,66.68
2022-11-09T14:32:51.971Z,66.52
2022-11-09T14:35:41.530Z,66.47
2022-11-09T14:38:31.084Z,66.39
2022-11-09T14:41:22.921Z,65.95
2022-11-09T14:44:16.847Z,65.94
2022-11-09T14:47:04.692Z,65.60
2022-11-09T14:49:51.836Z,65.21
2022-11-09T14:55:42.147Z,65.53
2022-11-09T14:58:37.099Z,65.70
2022-11-09T15:01:25.786Z,66.05
2022-11-09T15:04:16.962Z,66.04
2022-11-09T15:07:05.408Z,65.60
2022-11-09T15:09:55.798Z,65.93
2022-11-09T15:12:52.096Z,65.28
2022-11-09T15:15:54.274Z,64.53
2022-11-09T15:18:46.755Z,65.10
2022-11-09T15:21:38.920Z,65.41
2022-11-09T15:24:27.541Z,64.99
2022-11-09T15:27:33.487Z,64.81
2022-11-09T15:30:32.979Z,64.72
2022-11-09T15:33:26.028Z,65.49
2022-11-09T15:36:26.432Z,65.16
2022-11-09T15:39:17.626Z,65.68
2022-11-09T15:42:12.777Z,65.70
2022-11-09T15:45:00.583Z,65.85
2022-11-09T15:47:52.865Z,65.57
2022-11-09T15:50:41.069Z,65.55
2022-11-09T15:53:33.977Z,65.41
2022-11-09T15:56:23.519Z,65.85
2022-11-09T15:59:20.378Z,65.63
2022-11-09T16:02:07.782Z,65.92
2022-11-09T16:04:54.566Z,66.01
2022-11-09T16:07:51.440Z,65.69
2022-11-09T16:10:39.879Z,65.57
2022-11-09T16:13:26.725Z,65.64
2022-11-09T16:16:14.822Z,65.90
2022-11-09T16:19:01.603Z,65.79
2022-11-09T16:21:48.420Z,65.86
2022-11-09T16:24:36.844Z,65.76
2022-11-09T16:30:39.653Z,65.58
2022-11-09T16:33:29.496Z,65.75
2022-11-09T16:36:21.521Z,65.87
2022-11-09T16:39:12.852Z,65.93
2022-11-09T16:42:08.663Z,65.68
2022-11-09T16:45:00.352Z,65.60
2022-11-09T16:47:50.259Z,65.48
2022-11-09T16:50:39.642Z,65.06
2022-11-09T16:53:27.300Z,65.02
2022-11-09T16:56:14.346Z,64.88
2022-11-09T16:59:02.483Z,65.10
2022-11-09T17:01:53.051Z,64.67
2022-11-09T17:04:39.826Z,65.21
2022-11-09T17:07:26.647Z,65.17
2022-11-09T17:10:13.715Z,65.32
2022-11-09T17:13:03.496Z,65.27
2022-11-09T17:15:53.273Z,65.41
2022-11-09T17:18:40.375Z,65.70
2022-11-09T17:21:29.090Z,66.02
2022-11-09T17:24:15.458Z,65.87
2022-11-09T17:27:01.791Z,65.48
2022-11-09T17:29:48.338Z,65.61
2022-11-09T17:32:38.367Z,65.67
2022-11-09T17:35:28.384Z,65.79
2022-11-09T17:38:21.420Z,65.83
2022-11-09T17:41:09.805Z,65.90
2022-11-09T17:43:55.856Z,66.15
2022-11-09T17:46:42.433Z,66.03
2022-11-09T17:49:30.534Z,65.96
2022-11-09T17:52:16.758Z,66.29
2022-11-09T17:55:03.539Z,66.07
2022-11-09T17:57:52.980Z,66.12
2022-11-09T18:00:40.318Z,66.25
2022-11-09T18:03:26.817Z,66.10
2022-11-09T18:06:19.636Z,65.68
2022-11-09T18:12:16.326Z,65.77
2022-11-09T18:15:03.041Z,65.65
2022-11-09T18:17:49.438Z,65.48
2022-11-09T18:20:38.924Z,65.44
2022-11-09T18:23:29.295Z,65.83
2022-11-09T18:26:18.675Z,65.54
2022-11-09T18:29:05.587Z,65.94
2022-11-09T18:31:52.011Z,66.08
2022-11-09T18:34:40.866Z,66.12
2022-11-09T18:37:27.680Z,66.24
2022-11-09T18:40:16.636Z,66.69
2022-11-09T18:43:06.363Z,66.41
2022-11-09T18:46:07.197Z,66.64
2022-11-09T18:48:54.607Z,66.48
2022-11-09T18:51:48.455Z,66.66
2022-11-09T18:54:35.967Z,66.43
2022-11-09T18:57:23.770Z,66.49
2022-11-09T19:00:11.555Z,66.51
2022-11-09T19:02:57.999Z,66.45
2022-11-09T19:05:48.936Z,66.46
2022-11-09T19:08:53.907Z,66.55
2022-11-09T19:11:40.614Z,66.33
2022-11-09T19:14:29.640Z,66.23
2022-11-09T19:17:17.146Z,66.42
2022-11-09T19:20:03.408Z,66.72
2022-11-09T19:22:49.876Z,66.71
2022-11-09T19:25:38.732Z,66.82
2022-11-09T19:28:28.724Z,66.58
2022-11-09T19:31:18.918Z,66.24
2022-11-09T19:34:05.610Z,66.09
2022-11-09T19:36:56.693Z,66.25
2022-11-09T19:39:47.592Z,66.26
2022-11-09T19:42:39.788Z,66.75
2022-11-09T19:45:26.032Z,66.91
2022-11-09T19:48:16.278Z,66.54
2022-11-09T19:51:03.544Z,66.57
2022-11-09T19:53:54.561Z,66.55
2022-11-09T19:56:40.708Z,67.05
2022-11-09T19:59:30.430Z,67.07
2022-11-09T20:02:17.591Z,66.93
2022-11-09T20:05:07.301Z,66.75
2022-11-09T20:07:53.927Z,67.05
2022-11-09T20:10:40.710Z,66.91
2022-11-09T20:13:27.049Z,66.87
2022-11-09T20:16:13.542Z,66.87
2022-11-09T20:19:00.264Z,66.95
2022-11-09T20:21:49.040Z,67.20
2022-11-09T20:24:35.509Z,67.22
2022-11-09T20:27:22.343Z,67.25
2022-11-09T20:30:09.613Z,67.28
2022-11-09T20:33:01.737Z,67.10
2022-11-09T20:35:53.509Z,67.33
2022-11-09T20:38:47.072Z,67.11
2022-11-09T20:41:33.833Z,67.39
2022-11-09T20:44:20.645Z,67.22
2022-11-09T20:47:07.675Z,67.27
2022-11-09T20:49:54.207Z,67.21
2022-11-09T20:52:42.256Z,66.84
2022-11-09T20:55:30.406Z,66.96
2022-11-09T20:58:16.951Z,66.99
2022-11-09T21:01:05.590Z,66.77
2022-11-09T21:03:53.050Z,66.80
2022-11-09T21:06:46.908Z,67.01
2022-11-09T21:09:33.890Z,66.91
2022-11-09T21:12:25.830Z,66.93
2022-11-09T21:15:14.053Z,66.95
2022-11-09T21:18:00.926Z,67.33
2022-11-09T21:20:47.711Z,67.61
2022-11-09T21:23:53.980Z,67.69
2022-11-09T21:26:58.624Z,67.79
2022-11-09T21:29:52.699Z,67.91
2022-11-09T21:32:39.395Z,68.10
2022-11-09T21:35:26.627Z,67.75
2022-11-09T21:38:13.869Z,67.69
2022-11-09T21:41:39.181Z,67.82
2022-11-09T21:44:26.209Z,67.96
2022-11-09T21:47:21.149Z,68.09
2022-11-09T21:50:21.276Z,68.33
2022-11-09T21:53:08.808Z,68.57
2022-11-09T21:55:55.588Z,68.53
2022-11-09T21:58:46.394Z,68.65
2022-11-09T22:01:33.372Z,68.92
2022-11-09T22:04:21.324Z,68.85
2022-11-09T22:07:36.781Z,68.65
2022-11-09T22:10:32.748Z,68.59
2022-11-09T22:13:45.431Z,68.64
2022-11-09T22:16:38.120Z,68.72
2022-11-09T22:19:44.108Z,68.53
2022-11-09T22:22:45.853Z,68.74
2022-11-09T22:29:02.788Z,68.53
2022-11-09T22:31:49.820Z,68.76
2022-11-09T22:34:44.705Z,68.74
2022-11-09T22:37:30.930Z,69.31
2022-11-09T22:40:26.225Z,68.27
2022-11-09T22:43:16.950Z,68.21
2022-11-09T22:46:06.931Z,68.11
2022-11-09T22:48:53.079Z,68.04
2022-11-09T22:51:40.817Z,68.13
2022-11-09T22:54:35.409Z,68.27
2022-11-09T22:57:25.186Z,68.42
2022-11-09T23:00:18.116Z,68.00
2022-11-09T23:03:08.162Z,68.13
2022-11-09T23:06:02.424Z,68.25
2022-11-09T23:09:00.478Z,67.96
2022-11-09T23:11:50.481Z,68.02
2022-11-09T23:14:54.628Z,68.22
2022-11-09T23:17:58.605Z,68.39
2022-11-09T23:20:56.483Z,68.52
2022-11-09T23:23:42.694Z,68.40
2022-11-09T23:26:34.883Z,68.27
2022-11-09T23:29:21.639Z,68.17
2022-11-09T23:32:08.540Z,68.69
2022-11-09T23:34:55.940Z,68.46
2022-11-09T23:37:42.911Z,68.87
2022-11-09T23:40:30.696Z,69.39
2022-11-09T23:43:22.443Z,69.51
2022-11-09T23:46:10.451Z,69.38
2022-11-09T23:49:02.307Z,69.63
2022-11-09T23:51:48.880Z,69.83
2022-11-09T23:54:38.305Z,69.79
2022-11-09T23:57:24.440Z,69.85
